Time;durP1;ratioP1;P1;durP2;ratioP2;P2;SDS_P1;SDS_P2;PMS_P1;PMS_P2;Temp;Humidity;BMP_temperature;BMP_pressure;BME280_temperature;BME280_humidity;BME280_pressure;Samples;Min_cycle;Max_cycle;Signal;HPM_P1;HPM_P2
2022/06/14 00:02:45;;;;;;;10.70;1.90;;;;;;;-128.00;-1.00;-1.00;100139;1299;1002523;-27
2022/06/14 00:05:14;;;;;;;4.00;1.50;;;;;;;-128.00;-1.00;-1.00;100164;1298;1003564;-27
2022/06/14 00:07:43;;;;;;;3.70;1.50;;;;;;;-128.00;-1.00;-1.00;100140;1299;1003979;-24
2022/06/14 00:10:13;;;;;;;2.80;1.70;;;;;;;-128.00;-1.00;-1.00;100138;1299;1004005;-28
2022/06/14 00:12:42;;;;;;;14.00;2.40;;;;;;;-128.00;-1.00;-1.00;100164;1298;1004179;-28
2022/06/14 00:15:11;;;;;;;9.40;1.80;;;;;;;-128.00;-1.00;-1.00;100183;1299;1004404;-28
2022/06/14 00:17:40;;;;;;;7.40;2.70;;;;;;;-128.00;-1.00;-1.00;100117;1299;1003433;-24
2022/06/14 00:20:10;;;;;;;3.40;2.00;;;;;;;-128.00;-1.00;-1.00;100155;1299;1003132;-30
2022/06/14 00:22:40;;;;;;;9.00;2.40;;;;;;;-128.00;-1.00;-1.00;100196;1299;1003883;-24
2022/06/14 00:25:21;;;;;;;5.90;1.70;;;;;;;-128.00;-1.00;-1.00;100137;1299;1003012;-28
2022/06/14 00:27:51;;;;;;;9.20;3.10;;;;;;;-128.00;-1.00;-1.00;100153;1299;1003650;-30
2022/06/14 00:30:20;;;;;;;25.30;1.70;;;;;;;-128.00;-1.00;-1.00;100163;1299;1004123;-27
2022/06/14 00:32:49;;;;;;;5.80;1.80;;;;;;;-128.00;-1.00;-1.00;100193;1299;1003860;-24
2022/06/14 00:35:19;;;;;;;6.60;1.60;;;;;;;-128.00;-1.00;-1.00;100202;1299;1003656;-24
2022/06/14 00:37:48;;;;;;;3.00;1.70;;;;;;;-128.00;-1.00;-1.00;100211;1299;1003454;-24
2022/06/14 00:40:21;;;;;;;4.70;1.60;;;;;;;-128.00;-1.00;-1.00;100126;1299;1003839;-24
2022/06/14 00:42:50;;;;;;;2.50;1.60;;;;;;;-128.00;-1.00;-1.00;100173;1298;1003637;-24
2022/06/14 00:45:20;;;;;;;6.20;1.40;;;;;;;-128.00;-1.00;-1.00;100143;1299;1002879;-24
2022/06/14 00:47:51;;;;;;;5.80;1.60;;;;;;;-128.00;-1.00;-1.00;100200;1299;1004162;-24
2022/06/14 00:50:23;;;;;;;7.10;1.70;;;;;;;-128.00;-1.00;-1.00;100197;1299;1003210;-24
2022/06/14 00:52:56;;;;;;;2.50;1.00;;;;;;;-128.00;-1.00;-1.00;100108;1299;1003560;-24
2022/06/14 00:55:31;;;;;;;3.50;1.70;;;;;;;-128.00;-1.00;-1.00;100145;1299;1003690;-28
2022/06/14 00:58:06;;;;;;;2.60;1.20;;;;;;;-128.00;-1.00;-1.00;100135;1299;1004233;-27
2022/06/14 01:00:38;;;;;;;3.80;1.60;;;;;;;-128.00;-1.00;-1.00;100134;1299;1004186;-25
2022/06/14 01:03:14;;;;;;;2.00;1.10;;;;;;;-128.00;-1.00;-1.00;100166;1299;1003489;-28
2022/06/14 01:08:22;;;;;;;4.80;1.70;;;;;;;-128.00;-1.00;-1.00;100079;1299;1004201;-28
2022/06/14 01:10:51;;;;;;;14.50;1.70;;;;;;;-128.00;-1.00;-1.00;100104;1299;1004027;-25
2022/06/14 01:13:20;;;;;;;1.70;1.10;;;;;;;-128.00;-1.00;-1.00;100094;1299;1004094;-28
2022/06/14 01:15:50;;;;;;;5.80;1.80;;;;;;;-128.00;-1.00;-1.00;100199;1299;1004220;-28
2022/06/14 01:18:19;;;;;;;7.80;2.20;;;;;;;-128.00;-1.00;-1.00;100142;1298;1004120;-25
2022/06/14 01:20:48;;;;;;;4.50;1.80;;;;;;;-128.00;-1.00;-1.00;100139;1299;1003437;-24
2022/06/14 01:23:17;;;;;;;2.10;1.30;;;;;;;-128.00;-1.00;-1.00;100128;1299;1003312;-24
2022/06/14 01:25:49;;;;;;;2.80;2.40;;;;;;;-128.00;-1.00;-1.00;100175;1299;1003504;-24
2022/06/14 01:28:19;;;;;;;7.30;1.80;;;;;;;-128.00;-1.00;-1.00;100245;1299;1003651;-28
2022/06/14 01:30:49;;;;;;;2.70;1.30;;;;;;;-128.00;-1.00;-1.00;100173;1299;1003721;-28
2022/06/14 01:33:20;;;;;;;7.10;3.20;;;;;;;-128.00;-1.00;-1.00;100160;1299;1003764;-28
2022/06/14 01:35:52;;;;;;;5.70;1.80;;;;;;;-128.00;-1.00;-1.00;100141;1299;1003418;-28
2022/06/14 01:38:21;;;;;;;9.50;1.90;;;;;;;-128.00;-1.00;-1.00;100163;1299;1002634;-27
2022/06/14 01:40:57;;;;;;;4.70;1.50;;;;;;;-128.00;-1.00;-1.00;100155;1299;1003713;-26
2022/06/14 01:43:31;;;;;;;1.80;1.30;;;;;;;-128.00;-1.00;-1.00;100139;1297;1003661;-30
2022/06/14 01:46:03;;;;;;;;;;;;;;;-128.00;-1.00;-1.00;100151;1299;1004518;-26
2022/06/14 01:48:43;;;;;;;2.90;1.60;;;;;;;-128.00;-1.00;-1.00;100142;1299;1003281;-28
2022/06/14 01:51:50;;;;;;;3.00;1.40;;;;;;;-128.00;-1.00;-1.00;100139;1299;1003914;-24
2022/06/14 01:54:11;;;;;;;2.50;1.50;;;;;;;-128.00;-1.00;-1.00;100181;1299;1003479;-24
2022/06/14 01:56:46;;;;;;;4.40;2.00;;;;;;;-128.00;-1.00;-1.00;100199;1299;1003284;-26
2022/06/14 01:59:21;;;;;;;21.60;2.10;;;;;;;-128.00;-1.00;-1.00;100194;1297;1004030;-26
2022/06/14 02:01:57;;;;;;;1.70;1.00;;;;;;;-128.00;-1.00;-1.00;100127;1299;1003999;-28
2022/06/14 02:07:13;;;;;;;3.40;1.80;;;;;;;-128.00;-1.00;-1.00;100129;1299;1003798;-28
2022/06/14 02:09:47;;;;;;;3.40;1.50;;;;;;;-128.00;-1.00;-1.00;100150;1299;1003525;-28
2022/06/14 02:12:18;;;;;;;2.60;1.10;;;;;;;-128.00;-1.00;-1.00;100075;1299;1004099;-28
2022/06/14 02:14:48;;;;;;;3.90;1.70;;;;;;;-128.00;-1.00;-1.00;100188;1299;1003370;-24
2022/06/14 02:17:23;;;;;;;2.30;1.40;;;;;;;-128.00;-1.00;-1.00;100136;1299;1004284;-26
2022/06/14 02:19:59;;;;;;;8.00;1.20;;;;;;;-128.00;-1.00;-1.00;100131;1299;1003282;-24
2022/06/14 02:22:33;;;;;;;5.40;2.00;;;;;;;-128.00;-1.00;-1.00;100149;1299;1003607;-28
2022/06/14 02:25:08;;;;;;;5.00;1.60;;;;;;;-128.00;-1.00;-1.00;100132;1299;1004196;-24
2022/06/14 02:27:37;;;;;;;0.90;0.70;;;;;;;-128.00;-1.00;-1.00;100120;1299;1004213;-28
2022/06/14 02:30:10;;;;;;;4.10;2.90;;;;;;;-128.00;-1.00;-1.00;100141;1299;1003360;-23
2022/06/14 02:32:42;;;;;;;10.70;2.40;;;;;;;-128.00;-1.00;-1.00;100125;1299;1003985;-28
2022/06/14 02:35:15;;;;;;;4.30;2.00;;;;;;;-128.00;-1.00;-1.00;100200;1299;1002593;-28
2022/06/14 02:37:49;;;;;;;1.40;1.20;;;;;;;-128.00;-1.00;-1.00;100166;1299;1004300;-27
2022/06/14 02:40:22;;;;;;;2.40;1.30;;;;;;;-128.00;-1.00;-1.00;100166;1299;1003843;-24
2022/06/14 02:42:56;;;;;;;3.10;1.40;;;;;;;-128.00;-1.00;-1.00;100147;1298;1004282;-28
2022/06/14 02:45:31;;;;;;;2.30;0.70;;;;;;;-128.00;-1.00;-1.00;100145;1298;1004182;-28
2022/06/14 02:48:07;;;;;;;7.30;1.20;;;;;;;-128.00;-1.00;-1.00;100177;1299;1004219;-28
2022/06/14 02:50:44;;;;;;;3.10;0.70;;;;;;;-128.00;-1.00;-1.00;100100;1299;1003649;-28
2022/06/14 02:53:17;;;;;;;1.10;0.80;;;;;;;-128.00;-1.00;-1.00;100161;1298;1004153;-27
2022/06/14 02:55:48;;;;;;;4.60;1.50;;;;;;;-128.00;-1.00;-1.00;100121;1298;1003690;-25
2022/06/14 02:58:23;;;;;;;3.40;1.40;;;;;;;-128.00;-1.00;-1.00;100140;1299;1003851;-24
2022/06/14 03:00:54;;;;;;;3.50;0.80;;;;;;;-128.00;-1.00;-1.00;100144;1299;1003516;-24
2022/06/14 03:03:28;;;;;;;6.10;1.30;;;;;;;-128.00;-1.00;-1.00;100171;1299;1004153;-23
2022/06/14 03:05:59;;;;;;;;;;;;;;;-128.00;-1.00;-1.00;100148;1299;1004018;-24
2022/06/14 03:08:33;;;;;;;3.80;1.10;;;;;;;-128.00;-1.00;-1.00;100178;1298;1003265;-24
2022/06/14 03:11:02;;;;;;;;;;;;;;;-128.00;-1.00;-1.00;100165;1299;1003361;-28
2022/06/14 03:13:32;;;;;;;1.50;0.80;;;;;;;-128.00;-1.00;-1.00;100165;1298;1003863;-28
2022/06/14 03:16:08;;;;;;;3.90;1.10;;;;;;;-128.00;-1.00;-1.00;100122;1299;1004924;-30
2022/06/14 03:18:38;;;;;;;3.00;1.10;;;;;;;-128.00;-1.00;-1.00;100123;1299;1003888;-28
2022/06/14 03:21:13;;;;;;;2.50;1.20;;;;;;;-128.00;-1.00;-1.00;100152;1299;1003725;-24
2022/06/14 03:23:47;;;;;;;0.70;0.50;;;;;;;-128.00;-1.00;-1.00;100093;1299;1003990;-26
2022/06/14 03:26:19;;;;;;;4.30;1.60;;;;;;;-128.00;-1.00;-1.00;100189;1299;1003925;-26
2022/06/14 03:28:52;;;;;;;10.80;2.00;;;;;;;-128.00;-1.00;-1.00;100247;1299;1002898;-28
2022/06/14 03:31:24;;;;;;;8.80;1.50;;;;;;;-128.00;-1.00;-1.00;100162;1299;1003062;-25
2022/06/14 03:34:00;;;;;;;2.70;0.90;;;;;;;-128.00;-1.00;-1.00;100161;1298;1002817;-29
2022/06/14 03:36:29;;;;;;;1.90;0.90;;;;;;;-128.00;-1.00;-1.00;100145;1298;1004564;-24
2022/06/14 03:39:03;;;;;;;5.10;2.50;;;;;;;-128.00;-1.00;-1.00;100144;1299;1003590;-24
2022/06/14 03:41:33;;;;;;;1.60;0.90;;;;;;;-128.00;-1.00;-1.00;100175;1298;1004169;-26
2022/06/14 03:44:03;;;;;;;3.00;1.40;;;;;;;-128.00;-1.00;-1.00;99930;1299;1003350;-24
2022/06/14 03:46:35;;;;;;;3.80;1.00;;;;;;;-128.00;-1.00;-1.00;100172;1298;1004312;-27
2022/06/14 03:49:10;;;;;;;0.40;0.20;;;;;;;-128.00;-1.00;-1.00;100118;1298;1004076;-25
2022/06/14 03:51:47;;;;;;;13.80;0.90;;;;;;;-128.00;-1.00;-1.00;100118;1299;1004257;-24
2022/06/14 03:54:24;;;;;;;1.80;0.80;;;;;;;-128.00;-1.00;-1.00;100156;1299;1003917;-24
2022/06/14 03:56:56;;;;;;;3.10;1.00;;;;;;;-128.00;-1.00;-1.00;100160;1299;1003395;-25
2022/06/14 03:59:34;;;;;;;3.10;1.00;;;;;;;-128.00;-1.00;-1.00;100128;1299;1004531;-24
2022/06/14 04:02:53;;;;;;;2.60;0.90;;;;;;;-128.00;-1.00;-1.00;100155;1299;1003299;-24
2022/06/14 04:05:23;;;;;;;3.90;0.80;;;;;;;-128.00;-1.00;-1.00;100139;1298;1003380;-27
2022/06/14 04:07:57;;;;;;;2.50;0.90;;;;;;;-128.00;-1.00;-1.00;100164;1299;1004165;-25
2022/06/14 04:10:31;;;;;;;0.60;0.30;;;;;;;-128.00;-1.00;-1.00;100175;1299;1003843;-25
2022/06/14 04:13:01;;;;;;;2.10;0.70;;;;;;;-128.00;-1.00;-1.00;100030;1299;1003184;-28
2022/06/14 04:15:36;;;;;;;3.90;0.70;;;;;;;-128.00;-1.00;-1.00;99982;1299;1004733;-25
2022/06/14 04:20:42;;;;;;;1.50;0.80;;;;;;;-128.00;-1.00;-1.00;100165;1299;1004049;-28
2022/06/14 04:23:14;;;;;;;5.50;0.80;;;;;;;-128.00;-1.00;-1.00;100183;1299;1003304;-28
2022/06/14 04:25:45;;;;;;;8.10;0.70;;;;;;;-128.00;-1.00;-1.00;100160;1299;1003904;-30
2022/06/14 04:28:18;;;;;;;2.60;0.50;;;;;;;-128.00;-1.00;-1.00;100176;1299;1003725;-30
2022/06/14 04:30:53;;;;;;;;;;;;;;;-128.00;-1.00;-1.00;100217;1299;1004012;-30
2022/06/14 04:33:28;;;;;;;0.70;0.50;;;;;;;-128.00;-1.00;-1.00;100170;1299;1004230;-28
2022/06/14 04:36:02;;;;;;;2.50;0.80;;;;;;;-128.00;-1.00;-1.00;100165;1299;1003186;-25
2022/06/14 04:38:35;;;;;;;2.80;1.40;;;;;;;-128.00;-1.00;-1.00;100167;1299;1004370;-28
2022/06/14 04:41:09;;;;;;;1.40;0.60;;;;;;;-128.00;-1.00;-1.00;100144;1299;1003608;-25
2022/06/14 04:43:44;;;;;;;2.10;0.60;;;;;;;-128.00;-1.00;-1.00;100188;1299;1003566;-25
2022/06/14 04:46:17;;;;;;;1.40;0.60;;;;;;;-128.00;-1.00;-1.00;100140;1299;1003946;-28
2022/06/14 04:48:51;;;;;;;3.20;0.90;;;;;;;-128.00;-1.00;-1.00;100146;1299;1004204;-26
2022/06/14 04:51:21;;;;;;;2.90;1.40;;;;;;;-128.00;-1.00;-1.00;100129;1299;1003876;-25
2022/06/14 04:53:54;;;;;;;0.90;0.80;;;;;;;-128.00;-1.00;-1.00;100236;1299;1003947;-28
2022/06/14 04:56:27;;;;;;;5.30;0.50;;;;;;;-128.00;-1.00;-1.00;100155;1299;1003390;-25
2022/06/14 04:59:00;;;;;;;2.50;0.70;;;;;;;-128.00;-1.00;-1.00;100087;1299;1003000;-25
2022/06/14 05:01:32;;;;;;;1.10;0.90;;;;;;;-128.00;-1.00;-1.00;100045;1299;1003722;-29
2022/06/14 05:04:04;;;;;;;2.50;0.60;;;;;;;-128.00;-1.00;-1.00;100191;1299;1004084;-28
2022/06/14 05:06:38;;;;;;;1.20;0.70;;;;;;;-128.00;-1.00;-1.00;100071;1299;1004138;-25
2022/06/14 05:09:11;;;;;;;4.30;1.40;;;;;;;-128.00;-1.00;-1.00;100184;1299;1004627;-28
2022/06/14 05:11:42;;;;;;;1.50;1.10;;;;;;;-128.00;-1.00;-1.00;100228;1299;1003891;-25
2022/06/14 05:14:17;;;;;;;1.50;1.00;;;;;;;-128.00;-1.00;-1.00;100236;1299;1004113;-25
2022/06/14 05:16:50;;;;;;;1.20;0.60;;;;;;;-128.00;-1.00;-1.00;100121;1299;1004484;-28
2022/06/14 05:19:21;;;;;;;0.90;0.50;;;;;;;-128.00;-1.00;-1.00;100228;1299;1003669;-28
2022/06/14 05:21:55;;;;;;;3.50;0.60;;;;;;;-128.00;-1.00;-1.00;100288;1299;1004139;-25
2022/06/14 05:24:24;;;;;;;0.20;0.10;;;;;;;-128.00;-1.00;-1.00;100219;1299;1002999;-25
2022/06/14 05:26:53;;;;;;;1.00;0.70;;;;;;;-128.00;-1.00;-1.00;100161;1299;1004444;-24
2022/06/14 05:29:30;;;;;;;4.80;0.60;;;;;;;-128.00;-1.00;-1.00;100223;1299;1003553;-28
2022/06/14 05:32:03;;;;;;;3.60;1.20;;;;;;;-128.00;-1.00;-1.00;100203;1299;1003687;-27
2022/06/14 05:34:37;;;;;;;0.70;0.60;;;;;;;-128.00;-1.00;-1.00;100204;1299;1003827;-29
2022/06/14 05:37:14;;;;;;;3.10;0.50;;;;;;;-128.00;-1.00;-1.00;100194;1299;1002610;-24
2022/06/14 05:39:47;;;;;;;2.00;0.80;;;;;;;-128.00;-1.00;-1.00;100233;1299;1003580;-24
2022/06/14 05:42:19;;;;;;;0.60;0.40;;;;;;;-128.00;-1.00;-1.00;100343;1299;1003067;-28
2022/06/14 05:44:49;;;;;;;1.00;0.50;;;;;;;-128.00;-1.00;-1.00;100278;1299;1003829;-28
2022/06/14 05:47:25;;;;;;;6.20;0.70;;;;;;;-128.00;-1.00;-1.00;100245;1299;1003625;-28
2022/06/14 05:49:58;;;;;;;0.60;0.40;;;;;;;-128.00;-1.00;-1.00;100134;1299;1003290;-28
2022/06/14 05:52:31;;;;;;;1.50;0.50;;;;;;;-128.00;-1.00;-1.00;100183;1299;1004430;-27
2022/06/14 05:55:06;;;;;;;3.60;0.90;;;;;;;-128.00;-1.00;-1.00;100139;1299;1004293;-30
2022/06/14 05:57:38;;;;;;;1.20;0.70;;;;;;;-128.00;-1.00;-1.00;100217;1299;1003108;-24
2022/06/14 06:00:12;;;;;;;1.00;0.60;;;;;;;-128.00;-1.00;-1.00;100150;1299;1003092;-30
2022/06/14 06:02:44;;;;;;;;;;;;;;;-128.00;-1.00;-1.00;100164;1299;1003971;-30
2022/06/14 06:05:18;;;;;;;2.80;0.70;;;;;;;-128.00;-1.00;-1.00;100186;1299;1003687;-30
2022/06/14 06:07:49;;;;;;;;;;;;;;;-128.00;-1.00;-1.00;100066;1299;1003155;-24
2022/06/14 06:10:22;;;;;;;0.70;0.50;;;;;;;-128.00;-1.00;-1.00;100166;1299;1003584;-28
2022/06/14 06:12:55;;;;;;;0.40;0.20;;;;;;;-128.00;-1.00;-1.00;100156;1299;1004120;-27
2022/06/14 06:15:30;;;;;;;0.40;0.30;;;;;;;-128.00;-1.00;-1.00;100179;1299;1004153;-30
2022/06/14 06:18:04;;;;;;;0.90;0.40;;;;;;;-128.00;-1.00;-1.00;100116;1299;1003908;-28
2022/06/14 06:20:39;;;;;;;0.80;0.40;;;;;;;-128.00;-1.00;-1.00;100147;1299;1004271;-25
2022/06/14 06:23:08;;;;;;;1.20;0.50;;;;;;;-128.00;-1.00;-1.00;100138;1299;1003310;-28
2022/06/14 06:25:41;;;;;;;1.40;0.30;;;;;;;-128.00;-1.00;-1.00;100156;1299;1004566;-25
2022/06/14 06:28:14;;;;;;;0.50;0.30;;;;;;;-128.00;-1.00;-1.00;100166;1299;1004226;-25
2022/06/14 06:30:45;;;;;;;4.90;0.40;;;;;;;-128.00;-1.00;-1.00;100154;1299;1003153;-28
2022/06/14 06:33:15;;;;;;;2.00;1.10;;;;;;;-128.00;-1.00;-1.00;100053;1299;1003169;-24
2022/06/14 06:35:49;;;;;;;0.70;0.20;;;;;;;-128.00;-1.00;-1.00;100120;1299;1003545;-28
2022/06/14 06:38:26;;;;;;;1.20;0.40;;;;;;;-128.00;-1.00;-1.00;100126;1299;1003637;-25
2022/06/14 06:43:37;;;;;;;0.50;0.30;;;;;;;-128.00;-1.00;-1.00;100088;1299;1004056;-28
2022/06/14 06:46:09;;;;;;;0.70;0.30;;;;;;;-128.00;-1.00;-1.00;100172;1299;1002772;-28
2022/06/14 06:48:40;;;;;;;6.50;0.70;;;;;;;-128.00;-1.00;-1.00;100174;1299;1003929;-24
2022/06/14 06:51:12;;;;;;;0.50;0.20;;;;;;;-128.00;-1.00;-1.00;100080;1302;1003087;-24
2022/06/14 06:53:43;;;;;;;1.30;0.40;;;;;;;-128.00;-1.00;-1.00;100183;1299;1003786;-26
2022/06/14 06:56:16;;;;;;;0.70;0.40;;;;;;;-128.00;-1.00;-1.00;100138;1299;1005113;-28
2022/06/14 06:58:52;;;;;;;2.30;0.60;;;;;;;-128.00;-1.00;-1.00;100169;1299;1003591;-28
2022/06/14 07:01:25;;;;;;;0.60;0.30;;;;;;;-128.00;-1.00;-1.00;100120;1299;1003727;-25
2022/06/14 07:03:58;;;;;;;;;;;;;;;-128.00;-1.00;-1.00;100163;1299;1003238;-28
2022/06/14 07:06:30;;;;;;;1.20;0.40;;;;;;;-128.00;-1.00;-1.00;100131;1299;1004689;-25
2022/06/14 07:09:02;;;;;;;1.50;0.50;;;;;;;-128.00;-1.00;-1.00;100148;1299;1003700;-25
2022/06/14 07:11:38;;;;;;;1.20;0.30;;;;;;;-128.00;-1.00;-1.00;100214;1299;1003489;-25
2022/06/14 07:14:13;;;;;;;0.50;0.20;;;;;;;-128.00;-1.00;-1.00;100139;1298;1004338;-28
2022/06/14 07:16:47;;;;;;;0.50;0.30;;;;;;;-128.00;-1.00;-1.00;100182;1298;1003906;-26
2022/06/14 07:19:19;;;;;;;2.60;0.50;;;;;;;-128.00;-1.00;-1.00;100026;1302;1004232;-28
2022/06/14 07:21:52;;;;;;;1.10;0.30;;;;;;;-128.00;-1.00;-1.00;100212;1299;1004335;-30
2022/06/14 07:24:23;;;;;;;0.50;0.30;;;;;;;-128.00;-1.00;-1.00;100141;1299;1003675;-24
2022/06/14 07:26:54;;;;;;;1.70;0.50;;;;;;;-128.00;-1.00;-1.00;100122;1299;1003911;-25
2022/06/14 07:29:29;;;;;;;0.80;0.30;;;;;;;-128.00;-1.00;-1.00;100089;1299;1003921;-27
2022/06/14 07:32:04;;;;;;;4.50;0.50;;;;;;;-128.00;-1.00;-1.00;100153;1299;1003259;-25
2022/06/14 07:34:33;;;;;;;1.90;0.50;;;;;;;-128.00;-1.00;-1.00;100134;1299;1004159;-26
2022/06/14 07:37:06;;;;;;;1.20;0.50;;;;;;;-128.00;-1.00;-1.00;100136;1299;1003181;-30
2022/06/14 07:39:36;;;;;;;2.90;0.30;;;;;;;-128.00;-1.00;-1.00;100092;1299;1003900;-23
2022/06/14 07:42:08;;;;;;;0.10;0.00;;;;;;;-128.00;-1.00;-1.00;100190;1299;1003496;-29
2022/06/14 07:44:41;;;;;;;5.70;0.90;;;;;;;-128.00;-1.00;-1.00;100153;1299;1003801;-29
2022/06/14 07:47:14;;;;;;;1.60;0.30;;;;;;;-128.00;-1.00;-1.00;100231;1298;1004245;-28
2022/06/14 07:49:51;;;;;;;1.30;0.30;;;;;;;-128.00;-1.00;-1.00;100223;1298;1003313;-26
2022/06/14 07:52:25;;;;;;;0.80;0.40;;;;;;;-128.00;-1.00;-1.00;100251;1299;1003678;-25
2022/06/14 07:55:01;;;;;;;3.10;0.20;;;;;;;-128.00;-1.00;-1.00;100068;1299;1004144;-28
2022/06/14 07:57:33;;;;;;;0.60;0.50;;;;;;;-128.00;-1.00;-1.00;100187;1299;1003533;-24
2022/06/14 08:02:40;;;;;;;0.50;0.40;;;;;;;-128.00;-1.00;-1.00;100122;1299;1004359;-28
2022/06/14 08:05:13;;;;;;;0.10;0.00;;;;;;;-128.00;-1.00;-1.00;100167;1299;1003872;-28
2022/06/14 08:07:43;;;;;;;2.10;0.20;;;;;;;-128.00;-1.00;-1.00;100153;1298;1003868;-27
2022/06/14 08:10:17;;;;;;;1.40;0.60;;;;;;;-128.00;-1.00;-1.00;100162;1299;1003271;-24
2022/06/14 08:12:51;;;;;;;2.30;0.30;;;;;;;-128.00;-1.00;-1.00;100052;1302;1004719;-29
2022/06/14 08:15:26;;;;;;;0.70;0.30;;;;;;;-128.00;-1.00;-1.00;100208;1299;1004631;-29
2022/06/14 08:18:00;;;;;;;0.50;0.10;;;;;;;-128.00;-1.00;-1.00;100177;1299;1003334;-29
2022/06/14 08:20:33;;;;;;;0.40;0.20;;;;;;;-128.00;-1.00;-1.00;100176;1299;1003845;-28
2022/06/14 08:23:06;;;;;;;1.10;0.40;;;;;;;-128.00;-1.00;-1.00;100161;1299;1004093;-24
2022/06/14 08:25:36;;;;;;;0.50;0.20;;;;;;;-128.00;-1.00;-1.00;100187;1299;1003615;-25
2022/06/14 08:28:09;;;;;;;2.60;0.50;;;;;;;-128.00;-1.00;-1.00;100152;1299;1003390;-28
2022/06/14 08:30:40;;;;;;;0.70;0.10;;;;;;;-128.00;-1.00;-1.00;100144;1299;1003987;-25
2022/06/14 08:33:16;;;;;;;1.60;0.20;;;;;;;-128.00;-1.00;-1.00;100196;1299;1003152;-29
2022/06/14 08:35:51;;;;;;;2.60;0.20;;;;;;;-128.00;-1.00;-1.00;100146;1299;1003472;-25
2022/06/14 08:38:24;;;;;;;0.40;0.20;;;;;;;-128.00;-1.00;-1.00;100116;1299;1003517;-28
2022/06/14 08:40:57;;;;;;;0.60;0.10;;;;;;;-128.00;-1.00;-1.00;100206;1299;1004056;-28
2022/06/14 08:43:32;;;;;;;0.10;0.00;;;;;;;-128.00;-1.00;-1.00;100156;1299;1005175;-28
2022/06/14 08:46:04;;;;;;;0.20;0.10;;;;;;;-128.00;-1.00;-1.00;100156;1299;1004625;-29
2022/06/14 08:48:40;;;;;;;0.50;0.20;;;;;;;-128.00;-1.00;-1.00;100179;1299;1004223;-29
2022/06/14 08:51:13;;;;;;;1.10;0.30;;;;;;;-128.00;-1.00;-1.00;100009;1302;1003969;-28
2022/06/14 08:53:50;;;;;;;1.20;0.30;;;;;;;-128.00;-1.00;-1.00;100127;1299;1003308;-24
2022/06/14 08:56:26;;;;;;;0.20;0.10;;;;;;;-128.00;-1.00;-1.00;100179;1299;1003498;-25
2022/06/14 08:59:07;;;;;;;1.90;0.40;;;;;;;-128.00;-1.00;-1.00;100465;1299;1004075;-28
2022/06/14 09:02:04;;;;;;;1.20;0.20;;;;;;;-128.00;-1.00;-1.00;100657;1302;1003564;-22
2022/06/14 09:04:45;;;;;;;2.60;0.30;;;;;;;-128.00;-1.00;-1.00;100159;1298;1003803;-25
2022/06/14 09:07:25;;;;;;;6.90;0.80;;;;;;;-128.00;-1.00;-1.00;100163;1299;1004213;-25
2022/06/14 09:09:58;;;;;;;0.10;0.00;;;;;;;-128.00;-1.00;-1.00;100158;1299;1003919;-25
2022/06/14 09:12:32;;;;;;;0.90;0.40;;;;;;;-128.00;-1.00;-1.00;100205;1299;1003387;-28
2022/06/14 09:15:10;;;;;;;0.40;0.20;;;;;;;-128.00;-1.00;-1.00;100080;1300;1004144;-27
2022/06/14 09:17:46;;;;;;;2.00;0.60;;;;;;;-128.00;-1.00;-1.00;100205;1299;1004156;-26
2022/06/14 09:20:21;;;;;;;1.30;0.30;;;;;;;-128.00;-1.00;-1.00;100196;1299;1003654;-24
2022/06/14 09:22:54;;;;;;;2.00;0.30;;;;;;;-128.00;-1.00;-1.00;100220;1299;1003014;-28
2022/06/14 09:25:29;;;;;;;0.70;0.30;;;;;;;-128.00;-1.00;-1.00;100238;1299;1003728;-30
2022/06/14 09:28:13;;;;;;;0.40;0.40;;;;;;;-128.00;-1.00;-1.00;100368;1299;1004483;-30
2022/06/14 09:30:54;;;;;;;0.20;0.10;;;;;;;-128.00;-1.00;-1.00;100166;1299;1003889;-28
2022/06/14 09:33:40;;;;;;;1.40;0.60;;;;;;;-128.00;-1.00;-1.00;100263;1299;1003417;-27
2022/06/14 09:36:14;;;;;;;0.20;0.00;;;;;;;-128.00;-1.00;-1.00;100149;1299;1003660;-28
2022/06/14 09:38:47;;;;;;;0.60;0.20;;;;;;;-128.00;-1.00;-1.00;100088;1299;1003578;-28
2022/06/14 09:41:17;;;;;;;1.00;0.30;;;;;;;-128.00;-1.00;-1.00;100199;1299;1003703;-24
2022/06/14 09:43:55;;;;;;;0.60;0.40;;;;;;;-128.00;-1.00;-1.00;100167;1299;1002601;-28
2022/06/14 09:46:31;;;;;;;1.00;0.40;;;;;;;-128.00;-1.00;-1.00;100210;1299;1003885;-27
2022/06/14 09:49:10;;;;;;;1.10;0.30;;;;;;;-128.00;-1.00;-1.00;100192;1299;1003306;-25
2022/06/14 09:51:42;;;;;;;0.60;0.20;;;;;;;-128.00;-1.00;-1.00;100227;1299;1004321;-29
2022/06/14 09:54:21;;;;;;;2.60;0.30;;;;;;;-128.00;-1.00;-1.00;100197;1299;1003242;-24
2022/06/14 09:56:57;;;;;;;0.30;0.20;;;;;;;-128.00;-1.00;-1.00;100092;1299;1003554;-25
2022/06/14 09:59:35;;;;;;;2.50;0.30;;;;;;;-128.00;-1.00;-1.00;100161;1297;1003587;-25
2022/06/14 10:02:18;;;;;;;2.00;0.40;;;;;;;-128.00;-1.00;-1.00;100154;1299;1004457;-25
2022/06/14 10:04:55;;;;;;;3.60;0.40;;;;;;;-128.00;-1.00;-1.00;100023;1299;1003537;-26
2022/06/14 10:07:31;;;;;;;1.10;0.20;;;;;;;-128.00;-1.00;-1.00;100155;1299;1003429;-24
2022/06/14 10:10:07;;;;;;;1.60;1.00;;;;;;;-128.00;-1.00;-1.00;100115;1299;1003144;-30
2022/06/14 10:12:59;;;;;;;1.90;0.20;;;;;;;-128.00;-1.00;-1.00;100194;1299;1003376;-29
2022/06/14 10:15:50;;;;;;;0.00;0.00;;;;;;;-128.00;-1.00;-1.00;100150;1299;1003826;-28
2022/06/14 10:18:40;;;;;;;1.50;0.30;;;;;;;-128.00;-1.00;-1.00;100161;1299;1002831;-25
2022/06/14 10:21:13;;;;;;;1.70;0.50;;;;;;;-128.00;-1.00;-1.00;100148;1299;1003792;-29
2022/06/14 10:23:46;;;;;;;1.00;0.20;;;;;;;-128.00;-1.00;-1.00;100124;1299;1003328;-25
2022/06/14 10:29:00;;;;;;;2.50;0.60;;;;;;;-128.00;-1.00;-1.00;100148;1298;1002935;-26
2022/06/14 10:31:46;;;;;;;6.20;0.50;;;;;;;-128.00;-1.00;-1.00;100169;1298;1003249;-30
2022/06/14 10:34:21;;;;;;;1.00;0.20;;;;;;;-128.00;-1.00;-1.00;100092;1302;1003533;-24
2022/06/14 10:36:59;;;;;;;1.30;0.20;;;;;;;-128.00;-1.00;-1.00;100194;1299;1003221;-24
2022/06/14 10:39:36;;;;;;;2.80;0.30;;;;;;;-128.00;-1.00;-1.00;100188;1299;1004239;-25
2022/06/14 10:42:09;;;;;;;0.30;0.20;;;;;;;-128.00;-1.00;-1.00;100122;1299;1004348;-25
2022/06/14 10:44:42;;;;;;;1.50;0.60;;;;;;;-128.00;-1.00;-1.00;100141;1299;1004261;-25
2022/06/14 10:47:19;;;;;;;1.10;0.40;;;;;;;-128.00;-1.00;-1.00;100149;1299;1003316;-24
2022/06/14 10:49:55;;;;;;;1.90;0.40;;;;;;;-128.00;-1.00;-1.00;100155;1299;1003052;-26
2022/06/14 10:52:24;;;;;;;0.90;0.30;;;;;;;-128.00;-1.00;-1.00;100197;1299;1003996;-29
2022/06/14 10:54:54;;;;;;;1.20;0.50;;;;;;;-128.00;-1.00;-1.00;100174;1299;1002882;-26
2022/06/14 10:57:37;;;;;;;1.20;0.80;;;;;;;-128.00;-1.00;-1.00;100179;1299;1004229;-24
2022/06/14 11:00:12;;;;;;;3.40;2.80;;;;;;;-128.00;-1.00;-1.00;100061;1299;1004947;-30
2022/06/14 11:02:50;;;;;;;1.60;0.40;;;;;;;-128.00;-1.00;-1.00;100182;1299;1003668;-28
2022/06/14 11:05:23;;;;;;;2.00;0.60;;;;;;;-128.00;-1.00;-1.00;100168;1299;1003552;-24
2022/06/14 11:08:01;;;;;;;1.10;0.30;;;;;;;-128.00;-1.00;-1.00;100067;1298;1003984;-27
2022/06/14 11:10:35;;;;;;;4.50;0.70;;;;;;;-128.00;-1.00;-1.00;100112;1299;1003615;-28
2022/06/14 11:13:11;;;;;;;2.20;0.40;;;;;;;-128.00;-1.00;-1.00;100130;1299;1003216;-30
2022/06/14 11:15:51;;;;;;;1.80;0.40;;;;;;;-128.00;-1.00;-1.00;100169;1299;1002530;-27
2022/06/14 11:18:54;;;;;;;0.70;0.20;;;;;;;-128.00;-1.00;-1.00;100152;1298;1004605;-24
2022/06/14 11:21:26;;;;;;;1.20;0.30;;;;;;;-128.00;-1.00;-1.00;100087;1299;1002913;-24
2022/06/14 11:24:03;;;;;;;1.00;0.30;;;;;;;-128.00;-1.00;-1.00;100147;1299;1002697;-28
2022/06/14 11:26:39;;;;;;;1.00;0.30;;;;;;;-128.00;-1.00;-1.00;100067;1299;1003756;-30
2022/06/14 11:29:12;;;;;;;2.10;0.50;;;;;;;-128.00;-1.00;-1.00;100212;1299;1003881;-28
2022/06/14 11:31:44;;;;;;;0.50;0.30;;;;;;;-128.00;-1.00;-1.00;100182;1299;1003574;-24
2022/06/14 11:34:38;;;;;;;1.30;0.30;;;;;;;-128.00;-1.00;-1.00;100168;1298;1003851;-28
2022/06/14 11:37:10;;;;;;;;;;;;;;;-128.00;-1.00;-1.00;100178;1299;1003846;-28
2022/06/14 11:39:42;;;;;;;1.10;0.70;;;;;;;-128.00;-1.00;-1.00;100192;1299;1003072;-28
2022/06/14 11:42:16;;;;;;;1.80;0.50;;;;;;;-128.00;-1.00;-1.00;100241;1299;1002922;-28
2022/06/14 11:44:50;;;;;;;0.30;0.20;;;;;;;-128.00;-1.00;-1.00;100079;1299;1004268;-27
2022/06/14 11:47:26;;;;;;;0.60;0.30;;;;;;;-128.00;-1.00;-1.00;100173;1299;1003293;-25
2022/06/14 11:50:01;;;;;;;4.70;0.80;;;;;;;-128.00;-1.00;-1.00;100153;1299;1003382;-28
2022/06/14 11:52:37;;;;;;;3.20;0.30;;;;;;;-128.00;-1.00;-1.00;100149;1298;1004423;-25
2022/06/14 11:55:16;;;;;;;1.60;0.30;;;;;;;-128.00;-1.00;-1.00;100122;1299;1003284;-30
2022/06/14 11:57:53;;;;;;;1.20;0.30;;;;;;;-128.00;-1.00;-1.00;100075;1299;1004688;-28
2022/06/14 12:00:30;;;;;;;0.40;0.10;;;;;;;-128.00;-1.00;-1.00;100122;1299;1003440;-30
2022/06/14 12:03:08;;;;;;;0.20;0.10;;;;;;;-128.00;-1.00;-1.00;100135;1299;1004514;-25
2022/06/14 12:05:44;;;;;;;2.90;0.30;;;;;;;-128.00;-1.00;-1.00;100128;1299;1003941;-25
2022/06/14 12:08:17;;;;;;;1.00;0.30;;;;;;;-128.00;-1.00;-1.00;100151;1299;1002967;-28